Time;durP1;ratioP1;P1;durP2;ratioP2;P2;SDS_P1;SDS_P2;PMS_P1;PMS_P2;Temp;Humidity;BMP_temperature;BMP_pressure;BME280_temperature;BME280_humidity;BME280_pressure;Samples;Min_cycle;Max_cycle;Signal;HPM_P1;HPM_P2
2022/08/30 00:02:05;;;;;;;9.23;4.90;;;21.60;92.20;;;;;;5052867;28;20155;-68
2022/08/30 00:04:31;;;;;;;9.80;4.00;;;21.60;92.20;;;;;;5052519;28;20056;-67
2022/08/30 00:06:57;;;;;;;11.35;4.78;;;21.60;92.40;;;;;;5052474;28;20070;-67
2022/08/30 00:09:22;;;;;;;14.23;5.28;;;21.50;92.50;;;;;;5053005;28;20032;-67
2022/08/30 00:11:50;;;;;;;9.93;4.80;;;21.50;92.50;;;;;;5052647;28;20041;-68
2022/08/30 00:14:16;;;;;;;8.80;4.15;;;21.50;92.70;;;;;;5051639;28;20394;-68
2022/08/30 00:16:42;;;;;;;7.90;3.90;;;21.50;92.60;;;;;;5052444;28;20037;-67
2022/08/30 00:19:07;;;;;;;11.55;4.55;;;21.50;92.60;;;;;;5052621;28;20033;-67
2022/08/30 00:21:33;;;;;;;11.20;4.45;;;21.50;92.70;;;;;;5052409;28;20017;-66
2022/08/30 00:23:59;;;;;;;10.63;4.88;;;21.50;92.70;;;;;;5052916;28;20466;-67
2022/08/30 00:26:24;;;;;;;8.07;4.57;;;21.40;92.80;;;;;;5052488;28;20474;-67
2022/08/30 00:28:50;;;;;;;10.30;4.50;;;21.40;92.60;;;;;;5054310;28;20025;-67
2022/08/30 00:31:16;;;;;;;11.10;5.15;;;21.40;92.80;;;;;;5056701;28;20021;-68
2022/08/30 00:33:42;;;;;;;11.02;5.07;;;21.40;92.80;;;;;;5055237;28;20025;-68
2022/08/30 00:36:07;;;;;;;9.50;4.82;;;21.30;93.00;;;;;;5056362;28;20033;-68
2022/08/30 00:38:33;;;;;;;15.50;5.50;;;21.40;92.90;;;;;;5056274;28;20397;-68
2022/08/30 00:40:58;;;;;;;9.40;4.85;;;21.30;93.10;;;;;;5051045;28;20079;-68
2022/08/30 00:43:28;;;;;;;7.57;4.10;;;21.40;93.10;;;;;;5040105;28;20029;-67
2022/08/30 00:45:54;;;;;;;10.27;4.13;;;21.40;92.90;;;;;;5036178;28;20032;-67
2022/08/30 00:48:19;;;;;;;8.52;4.55;;;21.40;92.80;;;;;;5035847;28;20026;-67
2022/08/30 00:50:50;;;;;;;7.50;4.55;;;21.40;92.90;;;;;;5036353;28;20417;-67
2022/08/30 00:53:21;;;;;;;10.73;4.68;;;21.30;93.00;;;;;;5036028;28;20132;-67
2022/08/30 00:55:47;;;;;;;6.63;4.15;;;21.40;93.00;;;;;;5036377;28;20021;-68
2022/08/30 00:58:25;;;;;;;10.48;4.93;;;21.40;92.90;;;;;;5036187;28;20132;-67
2022/08/30 01:00:53;;;;;;;8.52;4.57;;;21.40;93.00;;;;;;5036120;28;20026;-67
2022/08/30 01:03:20;;;;;;;10.57;4.75;;;21.40;93.00;;;;;;5035766;28;20036;-67
2022/08/30 01:05:48;;;;;;;9.50;4.35;;;21.30;93.00;;;;;;5035978;28;20079;-67
2022/08/30 01:08:14;;;;;;;8.00;4.07;;;21.30;93.10;;;;;;5035863;28;20104;-67
2022/08/30 01:10:40;;;;;;;6.38;4.40;;;21.30;93.20;;;;;;5041086;28;20154;-68
2022/08/30 01:13:08;;;;;;;9.55;4.55;;;21.30;93.20;;;;;;5055400;28;20485;-67
2022/08/30 01:15:34;;;;;;;8.73;4.38;;;21.30;93.20;;;;;;5051304;28;20048;-67
2022/08/30 01:18:01;;;;;;;5.85;4.72;;;21.30;93.10;;;;;;5055062;28;20463;-67
2022/08/30 01:20:36;;;;;;;9.88;5.00;;;21.20;93.10;;;;;;5054805;28;20033;-68
2022/08/30 01:23:15;;;;;;;11.88;4.80;;;21.30;93.10;;;;;;5054903;28;20116;-68
2022/08/30 01:25:43;;;;;;;8.20;4.95;;;21.20;93.30;;;;;;5055598;28;20036;-67
2022/08/30 01:28:14;;;;;;;10.57;4.95;;;21.20;93.40;;;;;;5055595;28;20021;-67
2022/08/30 01:30:41;;;;;;;10.38;4.57;;;21.20;93.40;;;;;;5054422;28;20070;-67
2022/08/30 01:33:08;;;;;;;8.98;4.93;;;21.10;93.40;;;;;;5053675;28;20017;-67
2022/08/30 01:35:43;;;;;;;9.82;5.00;;;21.10;93.50;;;;;;5055490;28;20028;-68
2022/08/30 01:38:10;;;;;;;7.95;4.68;;;21.00;93.60;;;;;;5055172;28;20036;-67
2022/08/30 01:40:35;;;;;;;7.93;4.47;;;21.10;93.50;;;;;;5054544;28;20090;-67
2022/08/30 01:43:01;;;;;;;8.18;4.45;;;21.10;93.60;;;;;;5055365;28;20517;-68
2022/08/30 01:45:27;;;;;;;8.50;4.25;;;21.10;93.60;;;;;;5055148;28;20106;-67
2022/08/30 01:47:53;;;;;;;7.30;4.38;;;21.10;93.40;;;;;;5054700;28;20025;-67
2022/08/30 01:50:18;;;;;;;11.40;5.00;;;21.10;93.30;;;;;;5052946;28;20121;-67
2022/08/30 01:52:44;;;;;;;10.20;4.93;;;21.10;93.50;;;;;;5035793;28;20493;-68
2022/08/30 01:55:10;;;;;;;8.60;4.45;;;21.00;93.60;;;;;;5042634;28;20029;-67
2022/08/30 01:57:35;;;;;;;8.00;4.07;;;21.10;93.60;;;;;;5041492;28;20033;-68
2022/08/30 02:00:03;;;;;;;6.85;4.63;;;21.10;93.60;;;;;;5047068;28;20087;-67
2022/08/30 02:02:29;;;;;;;8.43;4.40;;;21.10;93.50;;;;;;5053186;28;20467;-68
2022/08/30 02:04:56;;;;;;;5.80;4.60;;;21.00;93.60;;;;;;5054935;28;20028;-68
2022/08/30 02:07:22;;;;;;;6.80;4.50;;;21.00;93.60;;;;;;5054931;28;20056;-67
2022/08/30 02:09:48;;;;;;;9.90;4.45;;;21.00;93.60;;;;;;5054790;28;20013;-67
2022/08/30 02:12:14;;;;;;;9.07;4.60;;;21.00;93.70;;;;;;5054848;28;20021;-67
2022/08/30 02:14:40;;;;;;;7.78;4.82;;;21.00;93.60;;;;;;5054507;28;20045;-67
2022/08/30 02:17:08;;;;;;;9.45;4.85;;;21.00;93.70;;;;;;5054219;28;20033;-67
2022/08/30 02:19:34;;;;;;;8.32;4.07;;;20.90;93.70;;;;;;5054721;28;20021;-67
2022/08/30 02:21:59;;;;;;;8.35;4.45;;;20.90;93.80;;;;;;5054675;28;20039;-67
2022/08/30 02:24:25;;;;;;;9.38;4.72;;;20.90;93.90;;;;;;5054576;28;20028;-67
2022/08/30 02:26:52;;;;;;;8.30;4.95;;;20.80;93.90;;;;;;5054256;28;20035;-67
2022/08/30 02:29:18;;;;;;;6.88;4.57;;;20.90;94.00;;;;;;5054285;28;20023;-66
2022/08/30 02:31:44;;;;;;;8.05;4.68;;;20.90;93.90;;;;;;5054191;28;20100;-67
2022/08/30 02:34:10;;;;;;;8.27;4.38;;;20.90;94.00;;;;;;5052990;28;20545;-67
2022/08/30 02:36:35;;;;;;;8.65;4.63;;;20.90;93.80;;;;;;5052930;28;20029;-67
2022/08/30 02:39:01;;;;;;;10.40;4.63;;;20.90;93.90;;;;;;5054163;28;20025;-67
2022/08/30 02:41:26;;;;;;;5.72;4.10;;;20.80;93.90;;;;;;5054090;28;20474;-67
2022/08/30 02:43:57;;;;;;;7.70;4.18;;;20.80;93.80;;;;;;5053993;28;20025;-67
2022/08/30 02:46:23;;;;;;;8.48;4.93;;;20.90;93.90;;;;;;5053944;28;20351;-67
2022/08/30 02:48:48;;;;;;;9.48;5.07;;;20.90;93.90;;;;;;5053714;28;20506;-67
2022/08/30 02:51:14;;;;;;;9.13;4.80;;;20.80;94.00;;;;;;5054030;28;20367;-67
2022/08/30 02:53:42;;;;;;;8.38;4.85;;;20.80;94.10;;;;;;5054049;28;20032;-67
2022/08/30 02:56:09;;;;;;;7.95;5.03;;;20.70;94.10;;;;;;5053821;28;20523;-67
2022/08/30 02:58:36;;;;;;;10.05;4.18;;;20.80;94.10;;;;;;5053942;28;20082;-67
2022/08/30 03:01:01;;;;;;;7.72;4.40;;;20.80;94.10;;;;;;5053310;28;20032;-66
2022/08/30 03:03:27;;;;;;;7.25;4.53;;;20.80;94.00;;;;;;5053903;28;20033;-67
2022/08/30 03:05:53;;;;;;;5.93;4.57;;;20.80;94.00;;;;;;5052324;28;20398;-67
2022/08/30 03:08:18;;;;;;;7.72;4.97;;;20.80;94.00;;;;;;5053837;28;20033;-67
2022/08/30 03:10:44;;;;;;;7.28;4.88;;;20.80;94.00;;;;;;5053562;28;20024;-67
2022/08/30 03:13:10;;;;;;;8.35;5.00;;;20.70;94.10;;;;;;5053575;28;20577;-67
2022/08/30 03:15:38;;;;;;;6.95;5.20;;;20.70;94.30;;;;;;5053265;28;20104;-67
2022/08/30 03:18:04;;;;;;;8.90;4.70;;;20.70;94.20;;;;;;5053345;28;20037;-66
2022/08/30 03:20:29;;;;;;;10.15;5.07;;;20.70;94.20;;;;;;5053432;28;20079;-67
2022/08/30 03:22:55;;;;;;;9.38;4.40;;;20.70;94.10;;;;;;5053381;28;20428;-66
2022/08/30 03:25:21;;;;;;;9.70;5.05;;;20.70;94.30;;;;;;5053328;28;20052;-66
2022/08/30 03:27:48;;;;;;;6.18;4.90;;;20.70;94.30;;;;;;5053166;28;20425;-67
2022/08/30 03:30:14;;;;;;;8.00;3.92;;;20.60;94.30;;;;;;5053332;28;20021;-67
2022/08/30 03:32:40;;;;;;;8.82;5.10;;;20.70;94.10;;;;;;5052029;28;20351;-67
2022/08/30 03:35:06;;;;;;;12.15;5.57;;;20.70;94.30;;;;;;5053049;28;20496;-66
2022/08/30 03:37:32;;;;;;;8.77;4.88;;;20.70;94.30;;;;;;5053191;28;20489;-66
2022/08/30 03:39:58;;;;;;;6.90;4.95;;;20.70;94.30;;;;;;5052860;28;20037;-67
2022/08/30 03:42:23;;;;;;;7.93;4.97;;;20.70;94.30;;;;;;5053021;28;20025;-67
2022/08/30 03:44:49;;;;;;;10.55;5.07;;;20.70;94.20;;;;;;5053009;28;20060;-67
2022/08/30 03:47:15;;;;;;;7.20;4.20;;;20.70;94.10;;;;;;5052958;28;20025;-67
2022/08/30 03:49:41;;;;;;;6.70;5.00;;;20.70;94.20;;;;;;5053116;28;20029;-67
2022/08/30 03:52:06;;;;;;;8.27;4.72;;;20.60;94.20;;;;;;5053015;28;20036;-67
2022/08/30 03:54:32;;;;;;;7.80;5.25;;;20.60;94.20;;;;;;5052807;28;20104;-67
2022/08/30 03:56:58;;;;;;;7.60;4.82;;;20.60;94.30;;;;;;5052519;28;20033;-67
2022/08/30 03:59:23;;;;;;;11.02;4.70;;;20.60;94.30;;;;;;5053248;28;20063;-66
2022/08/30 04:01:49;;;;;;;9.95;4.90;;;20.60;94.30;;;;;;5051863;28;20063;-67
2022/08/30 04:04:14;;;;;;;6.93;4.70;;;20.60;94.30;;;;;;5059495;28;20024;-67
2022/08/30 04:06:40;;;;;;;7.05;4.63;;;20.60;94.30;;;;;;5059400;28;20033;-66
2022/08/30 04:09:06;;;;;;;6.30;4.65;;;20.50;94.30;;;;;;5059481;28;20055;-67
2022/08/30 04:11:32;;;;;;;7.57;4.10;;;20.50;94.30;;;;;;5059267;28;20437;-67
2022/08/30 04:13:58;;;;;;;9.02;4.78;;;20.60;94.30;;;;;;5059647;28;20017;-67
2022/08/30 04:16:24;;;;;;;9.32;4.68;;;20.50;94.40;;;;;;5059282;28;20074;-67
2022/08/30 04:18:50;;;;;;;6.45;4.43;;;20.50;94.40;;;;;;5059347;28;20074;-67
2022/08/30 04:21:16;;;;;;;7.65;4.63;;;20.50;94.40;;;;;;5059481;28;20025;-67
2022/08/30 04:23:42;;;;;;;7.75;4.90;;;20.50;94.40;;;;;;5059466;28;20029;-67
2022/08/30 04:26:08;;;;;;;7.35;4.72;;;20.50;94.40;;;;;;5057746;28;20042;-67
2022/08/30 04:28:34;;;;;;;5.18;3.83;;;20.50;94.40;;;;;;5059320;28;20401;-67
2022/08/30 04:31:07;;;;;;;10.80;4.90;;;20.50;94.30;;;;;;5059429;28;20122;-67
2022/08/30 04:33:34;;;;;;;6.38;4.65;;;20.50;94.40;;;;;;5048373;28;20032;-66
2022/08/30 04:36:03;;;;;;;8.48;5.03;;;20.40;94.60;;;;;;5047544;28;20028;-67
2022/08/30 04:38:29;;;;;;;9.02;5.32;;;20.40;94.70;;;;;;5041988;28;20057;-67
2022/08/30 04:40:54;;;;;;;7.38;4.40;;;20.40;94.70;;;;;;5038328;28;20060;-68
2022/08/30 04:43:20;;;;;;;11.55;5.15;;;20.30;94.70;;;;;;5039147;28;20085;-67
2022/08/30 04:45:46;;;;;;;10.80;5.50;;;20.30;94.80;;;;;;5039278;28;20104;-66
2022/08/30 04:48:12;;;;;;;8.60;5.10;;;20.30;94.80;;;;;;5038599;28;20044;-66
2022/08/30 04:50:38;;;;;;;8.90;5.15;;;20.30;94.80;;;;;;5038681;28;20394;-66
2022/08/30 04:53:04;;;;;;;8.38;4.63;;;20.30;94.90;;;;;;5039871;28;20650;-66
2022/08/30 04:55:30;;;;;;;8.73;4.60;;;20.40;94.70;;;;;;5055970;28;20045;-65
2022/08/30 04:57:55;;;;;;;8.93;5.18;;;20.50;94.00;;;;;;5056602;28;20118;-69
2022/08/30 05:00:21;;;;;;;9.65;4.93;;;20.60;93.60;;;;;;5038922;28;20033;-68
2022/08/30 05:02:47;;;;;;;7.03;5.10;;;20.70;93.30;;;;;;5038648;28;20441;-69
2022/08/30 05:07:58;;;;;;;8.50;4.68;;;20.70;93.30;;;;;;5050261;28;20094;-68
2022/08/30 05:10:24;;;;;;;8.65;5.15;;;20.80;93.20;;;;;;5037666;28;20060;-68
2022/08/30 05:12:50;;;;;;;8.10;5.00;;;20.80;93.10;;;;;;5036440;28;20494;-68
2022/08/30 05:15:16;;;;;;;8.13;4.88;;;20.80;93.10;;;;;;5034397;28;20029;-68
2022/08/30 05:17:41;;;;;;;8.75;5.68;;;20.80;93.10;;;;;;5035556;28;20109;-68
2022/08/30 05:20:10;;;;;;;7.47;5.90;;;20.80;93.20;;;;;;5035800;28;20446;-69
2022/08/30 05:22:37;;;;;;;7.32;5.15;;;20.80;93.30;;;;;;5035739;28;20087;-69
2022/08/30 05:25:04;;;;;;;12.68;5.70;;;20.80;93.20;;;;;;5035546;28;20054;-69
2022/08/30 05:27:29;;;;;;;8.18;5.90;;;20.80;93.20;;;;;;5035527;28;20113;-69
2022/08/30 05:29:55;;;;;;;8.27;5.47;;;20.80;93.10;;;;;;5035688;28;20100;-70
2022/08/30 05:32:21;;;;;;;10.63;6.05;;;20.80;93.10;;;;;;5035590;28;20083;-69
2022/08/30 05:34:46;;;;;;;8.20;5.70;;;20.70;93.10;;;;;;5035507;28;20018;-65
2022/08/30 05:37:12;;;;;;;11.57;5.57;;;20.80;93.20;;;;;;5035451;28;20069;-69
2022/08/30 05:39:37;;;;;;;6.68;5.65;;;20.80;93.10;;;;;;5034972;28;20037;-69
2022/08/30 05:42:03;;;;;;;11.32;6.25;;;20.80;93.20;;;;;;5035352;28;20172;-69
2022/08/30 05:44:28;;;;;;;8.00;5.70;;;20.80;93.20;;;;;;5035334;28;20014;-69
2022/08/30 05:46:54;;;;;;;6.35;5.68;;;20.80;93.20;;;;;;5035373;28;20474;-69
2022/08/30 05:49:19;;;;;;;8.13;5.78;;;20.70;93.20;;;;;;5035060;28;20527;-69
2022/08/30 05:51:46;;;;;;;9.10;5.85;;;20.80;93.30;;;;;;5035246;28;20386;-69
2022/08/30 05:54:13;;;;;;;7.25;6.28;;;20.80;93.20;;;;;;5034758;28;20075;-68
2022/08/30 05:56:40;;;;;;;7.40;4.85;;;20.80;93.00;;;;;;5035134;28;20026;-69
2022/08/30 05:59:07;;;;;;;8.05;6.20;;;20.80;93.10;;;;;;5034831;28;20017;-69
2022/08/30 06:01:41;;;;;;;9.32;5.93;;;20.80;93.20;;;;;;5041271;28;20079;-67
2022/08/30 06:04:08;;;;;;;12.60;6.60;;;20.80;93.30;;;;;;5045564;28;20024;-69
2022/08/30 06:06:35;;;;;;;8.15;5.38;;;20.80;93.20;;;;;;5042029;28;20052;-69
2022/08/30 06:09:03;;;;;;;11.57;6.47;;;20.80;93.00;;;;;;5054243;28;20021;-69
2022/08/30 06:11:28;;;;;;;10.23;6.40;;;20.80;93.10;;;;;;5064059;28;20039;-69
2022/08/30 06:13:55;;;;;;;10.30;6.53;;;20.80;93.20;;;;;;5064815;28;20096;-70
2022/08/30 06:16:23;;;;;;;11.55;5.75;;;20.80;93.10;;;;;;5034605;28;20080;-69
2022/08/30 06:18:49;;;;;;;7.60;6.10;;;20.80;93.30;;;;;;5034279;28;20052;-69
2022/08/30 06:21:34;;;;;;;8.45;6.03;;;20.70;93.20;;;;;;5034650;28;20029;-69
2022/08/30 06:24:01;;;;;;;11.95;5.68;;;20.80;93.30;;;;;;5035096;28;20025;-69
2022/08/30 06:26:27;;;;;;;10.00;7.43;;;20.80;93.20;;;;;;5035244;28;20558;-69
2022/08/30 06:28:55;;;;;;;10.35;6.70;;;20.80;93.10;;;;;;5034434;28;20041;-69
2022/08/30 06:31:22;;;;;;;10.77;6.82;;;20.80;93.20;;;;;;5035311;28;20072;-69
2022/08/30 06:33:49;;;;;;;12.00;5.60;;;20.80;93.20;;;;;;5035810;28;20025;-69
2022/08/30 06:36:18;;;;;;;7.85;5.35;;;20.80;93.40;;;;;;5034444;28;20450;-69
2022/08/30 06:38:44;;;;;;;8.55;6.57;;;20.80;93.50;;;;;;5050894;28;20035;-69
2022/08/30 06:41:18;;;;;;;8.65;4.72;;;20.80;93.40;;;;;;5049245;28;20030;-68
2022/08/30 06:43:44;;;;;;;6.72;5.38;;;20.80;93.20;;;;;;5034182;28;20104;-68
2022/08/30 06:46:19;;;;;;;9.25;5.63;;;20.90;93.20;;;;;;5033603;28;20049;-68
2022/08/30 06:48:45;;;;;;;6.68;5.60;;;20.90;93.00;;;;;;5033991;28;20021;-69
2022/08/30 06:51:10;;;;;;;8.38;6.75;;;20.90;93.20;;;;;;5048433;28;20048;-69
2022/08/30 06:53:36;;;;;;;10.55;5.57;;;20.90;93.10;;;;;;5053770;28;20025;-69
2022/08/30 06:56:08;;;;;;;13.30;6.50;;;21.00;93.10;;;;;;5051733;28;20061;-70
2022/08/30 06:58:36;;;;;;;9.40;6.38;;;20.90;93.10;;;;;;5053912;28;20470;-70
2022/08/30 07:01:04;;;;;;;11.15;6.05;;;21.00;93.10;;;;;;5051539;28;20098;-69
2022/08/30 07:03:29;;;;;;;9.70;7.13;;;20.90;93.00;;;;;;5037548;28;20032;-69
2022/08/30 07:05:56;;;;;;;7.90;5.60;;;20.90;93.00;;;;;;5053359;28;20355;-69
2022/08/30 07:08:23;;;;;;;7.70;5.60;;;20.90;93.00;;;;;;5036777;28;20029;-68
2022/08/30 07:10:49;;;;;;;10.77;4.85;;;21.00;92.90;;;;;;5044029;28;20052;-67
2022/08/30 07:13:15;;;;;;;10.27;5.90;;;21.00;92.90;;;;;;5034653;28;20104;-69
2022/08/30 07:15:43;;;;;;;6.20;5.22;;;21.00;93.00;;;;;;5061710;28;20017;-69
2022/08/30 07:20:55;;;;;;;7.28;5.13;;;21.00;92.80;;;;;;5072971;28;20049;-69
2022/08/30 07:23:20;;;;;;;7.32;5.45;;;21.10;93.00;;;;;;5062269;28;20020;-69
2022/08/30 07:25:46;;;;;;;8.52;6.28;;;21.10;92.90;;;;;;5037265;28;20478;-69
2022/08/30 07:28:12;;;;;;;11.45;6.07;;;21.20;92.90;;;;;;5066790;28;20028;-69
2022/08/30 07:30:39;;;;;;;7.00;5.25;;;21.20;92.80;;;;;;5069314;28;20032;-69
2022/08/30 07:33:05;;;;;;;7.43;6.10;;;21.20;92.70;;;;;;5072767;28;20060;-69
2022/08/30 07:35:31;;;;;;;4.60;3.95;;;21.20;92.70;;;;;;5057909;28;20059;-69
2022/08/30 07:37:57;;;;;;;7.82;5.40;;;21.20;92.80;;;;;;5058321;28;20060;-70
2022/08/30 07:40:23;;;;;;;7.60;5.82;;;21.20;92.70;;;;;;5068545;28;20148;-70
2022/08/30 07:42:49;;;;;;;7.72;5.22;;;21.30;92.50;;;;;;5037428;28;20036;-70
2022/08/30 07:45:15;;;;;;;7.93;5.35;;;21.30;92.50;;;;;;5066361;28;20027;-69
2022/08/30 07:47:41;;;;;;;10.57;5.10;;;21.40;92.40;;;;;;5072579;28;20386;-70
2022/08/30 07:50:07;;;;;;;8.93;5.85;;;21.50;92.50;;;;;;5049107;28;20021;-70
2022/08/30 07:52:33;;;;;;;7.78;5.72;;;21.50;92.20;;;;;;5049446;28;20035;-70
2022/08/30 07:55:00;;;;;;;10.68;5.82;;;21.50;92.10;;;;;;5040231;28;20100;-70
2022/08/30 07:57:26;;;;;;;4.32;3.47;;;21.40;92.00;;;;;;5050846;28;20029;-70
2022/08/30 07:59:52;;;;;;;5.90;5.07;;;21.50;92.10;;;;;;5048215;28;20017;-70
2022/08/30 08:02:18;;;;;;;10.10;6.30;;;21.50;92.00;;;;;;5050561;28;20025;-70
2022/08/30 08:04:44;;;;;;;7.60;6.32;;;21.50;91.90;;;;;;5051327;28;20024;-70
2022/08/30 08:07:10;;;;;;;11.60;6.50;;;21.60;92.00;;;;;;5049566;28;20021;-70
2022/08/30 08:09:37;;;;;;;9.15;5.93;;;21.60;91.90;;;;;;5051296;28;20029;-70
2022/08/30 08:12:04;;;;;;;7.93;6.15;;;21.60;91.80;;;;;;5050127;28;20040;-69
2022/08/30 08:14:30;;;;;;;9.55;5.70;;;21.60;91.70;;;;;;5038840;28;20098;-70
2022/08/30 08:16:56;;;;;;;7.60;5.03;;;21.70;91.70;;;;;;5043643;28;20075;-69
2022/08/30 08:19:22;;;;;;;8.23;5.78;;;21.70;91.70;;;;;;5048582;28;20021;-67
2022/08/30 08:21:48;;;;;;;8.80;5.60;;;21.70;91.60;;;;;;5046479;28;20041;-67
2022/08/30 08:24:13;;;;;;;7.93;5.53;;;21.80;91.40;;;;;;5050424;28;20017;-66
2022/08/30 08:26:39;;;;;;;11.95;5.90;;;21.90;91.40;;;;;;5043949;28;20025;-68
2022/08/30 08:29:07;;;;;;;8.93;6.13;;;21.80;91.20;;;;;;5038226;28;20020;-68
2022/08/30 08:31:33;;;;;;;8.15;5.10;;;21.90;91.20;;;;;;5042248;28;20029;-68
2022/08/30 08:33:59;;;;;;;10.00;4.93;;;21.90;91.20;;;;;;5050652;28;20031;-67
2022/08/30 08:36:26;;;;;;;7.32;4.90;;;21.90;91.10;;;;;;5052415;28;20067;-68
2022/08/30 08:38:52;;;;;;;7.22;5.22;;;21.90;91.00;;;;;;5046787;28;20033;-66
2022/08/30 08:41:30;;;;;;;5.47;4.90;;;21.90;91.00;;;;;;5032593;28;20514;-68
2022/08/30 08:43:56;;;;;;;8.65;6.20;;;22.00;91.00;;;;;;5041926;28;20021;-67
2022/08/30 08:46:32;;;;;;;7.68;6.07;;;22.00;90.70;;;;;;5052376;28;20101;-67
2022/08/30 08:49:02;;;;;;;8.07;4.65;;;22.00;90.70;;;;;;5034575;28;20409;-67
2022/08/30 08:54:25;;;;;;;9.38;5.75;;;22.10;90.80;;;;;;5053030;28;20448;-67
2022/08/30 08:56:50;;;;;;;8.13;6.10;;;22.00;90.60;;;;;;5047742;28;20092;-65
2022/08/30 08:59:16;;;;;;;10.43;5.05;;;22.00;90.70;;;;;;5053943;28;20045;-67
2022/08/30 09:01:42;;;;;;;7.22;5.47;;;22.10;90.70;;;;;;5052065;28;20091;-68
2022/08/30 09:04:22;;;;;;;10.30;4.70;;;22.10;90.60;;;;;;5048718;28;20022;-67
2022/08/30 09:06:59;;;;;;;6.32;4.07;;;22.20;90.70;;;;;;5051481;28;20044;-67
2022/08/30 09:09:29;;;;;;;11.10;5.13;;;22.20;90.50;;;;;;5038230;28;20029;-67
2022/08/30 09:11:56;;;;;;;8.40;5.22;;;22.30;90.40;;;;;;5053807;28;20376;-67
2022/08/30 09:14:25;;;;;;;9.45;5.47;;;22.30;90.30;;;;;;5049035;28;20103;-67
2022/08/30 09:16:57;;;;;;;10.38;5.45;;;22.30;90.40;;;;;;5049985;28;20079;-67
2022/08/30 09:19:36;;;;;;;5.78;5.13;;;22.30;90.40;;;;;;5034600;28;20091;-66
2022/08/30 09:22:10;;;;;;;8.07;5.65;;;22.30;90.40;;;;;;5039779;28;20040;-68
2022/08/30 09:24:44;;;;;;;7.30;5.43;;;22.30;90.40;;;;;;5049926;28;20021;-67
2022/08/30 09:27:32;;;;;;;8.55;5.43;;;22.30;90.30;;;;;;5050792;28;20036;-65
2022/08/30 09:30:09;;;;;;;9.52;5.28;;;22.40;90.30;;;;;;5047201;28;20017;-67
2022/08/30 09:32:38;;;;;;;5.90;5.30;;;22.40;90.30;;;;;;5053670;28;20385;-65
2022/08/30 09:35:10;;;;;;;7.65;4.93;;;22.40;90.30;;;;;;5054690;28;20040;-67
2022/08/30 09:37:43;;;;;;;;;;;22.40;90.30;;;;;;5054591;28;20498;-68
2022/08/30 09:40:11;;;;;;;;;;;22.40;90.10;;;;;;5054433;28;20250;-67
2022/08/30 09:42:37;;;;;;;11.55;5.82;;;22.40;90.10;;;;;;5053464;28;20009;-65
2022/08/30 09:45:09;;;;;;;11.60;5.28;;;22.40;90.20;;;;;;5053822;28;20455;-68
2022/08/30 09:47:39;;;;;;;8.55;5.93;;;22.40;90.20;;;;;;5053702;28;20019;-67
2022/08/30 09:50:17;;;;;;;10.07;5.25;;;22.40;90.10;;;;;;5053444;28;20375;-67
2022/08/30 09:53:23;;;;;;;12.15;6.25;;;22.50;90.20;;;;;;5053000;28;20029;-66
2022/08/30 09:55:58;;;;;;;9.35;6.03;;;22.50;89.70;;;;;;5044726;28;20438;-66
2022/08/30 09:58:54;;;;;;;9.05;4.90;;;22.50;89.90;;;;;;5045869;28;20497;-66
2022/08/30 10:01:30;;;;;;;9.45;5.88;;;22.60;89.70;;;;;;5046386;28;20096;-66
2022/08/30 10:04:39;;;;;;;5.82;5.20;;;22.60;89.30;;;;;;5046389;28;20021;-64
2022/08/30 10:07:13;;;;;;;5.82;5.20;;;22.60;89.00;;;;;;5009209;28;20033;-65
2022/08/30 10:09:54;;;;;;;7.30;5.53;;;22.60;89.20;;;;;;5045337;28;20135;-65
2022/08/30 10:12:50;;;;;;;9.15;4.93;;;22.60;89.00;;;;;;5042019;28;20115;-67
2022/08/30 10:15:28;;;;;;;8.15;4.75;;;22.60;88.60;;;;;;5040002;28;20024;-66
2022/08/30 10:17:53;;;;;;;8.75;3.95;;;22.70;88.50;;;;;;5036463;28;20037;-65
2022/08/30 10:20:53;;;;;;;13.35;5.38;;;22.70;88.50;;;;;;5049006;28;20025;-64
2022/08/30 10:23:25;;;;;;;9.70;4.00;;;22.70;88.30;;;;;;5038629;28;20072;-64
2022/08/30 10:25:55;;;;;;;8.77;5.10;;;22.80;88.70;;;;;;5040774;28;20372;-65
2022/08/30 10:28:44;;;;;;;5.75;4.47;;;22.80;88.10;;;;;;5043399;28;20017;-68
2022/08/30 10:31:24;;;;;;;9.25;5.38;;;22.90;87.90;;;;;;5047683;28;20503;-66
2022/08/30 10:33:56;;;;;;;6.38;4.47;;;22.90;87.60;;;;;;5049418;28;20040;-65
2022/08/30 10:36:29;;;;;;;8.52;5.00;;;22.90;87.70;;;;;;5033072;28;20049;-65
2022/08/30 10:38:57;;;;;;;6.60;4.40;;;22.90;87.40;;;;;;5043871;28;20071;-65
2022/08/30 10:41:34;;;;;;;8.30;4.47;;;23.00;87.30;;;;;;5051304;28;20478;-66
2022/08/30 10:44:14;;;;;;;9.55;4.22;;;23.00;87.20;;;;;;5051485;28;20030;-68
2022/08/30 10:47:01;;;;;;;6.97;4.03;;;23.00;87.30;;;;;;5039137;28;20284;-66
2022/08/30 10:49:46;;;;;;;7.78;4.10;;;23.10;86.90;;;;;;5043379;28;20029;-68
2022/08/30 10:52:21;;;;;;;6.25;4.00;;;23.10;87.20;;;;;;5048709;28;20067;-67
2022/08/30 10:54:58;;;;;;;9.05;4.18;;;23.10;86.80;;;;;;5046185;28;20044;-67
2022/08/30 10:57:23;;;;;;;8.43;4.10;;;23.10;86.00;;;;;;5042227;28;20409;-68
2022/08/30 11:00:04;;;;;;;6.40;3.35;;;23.10;86.10;;;;;;5046754;28;20478;-70
2022/08/30 11:02:41;;;;;;;8.40;3.67;;;23.20;85.60;;;;;;5044249;28;20031;-66
2022/08/30 11:05:19;;;;;;;7.63;3.67;;;23.20;85.50;;;;;;5042533;28;20021;-70
2022/08/30 11:08:05;;;;;;;7.35;3.60;;;23.20;85.50;;;;;;5046352;28;20091;-70
2022/08/30 11:10:45;;;;;;;6.78;3.50;;;23.20;84.80;;;;;;5034182;28;20524;-66
2022/08/30 11:13:15;;;;;;;3.50;2.90;;;23.20;84.70;;;;;;5038185;28;20083;-70
2022/08/30 11:16:07;;;;;;;5.55;3.00;;;23.20;85.20;;;;;;5049609;28;20031;-69
2022/08/30 11:19:00;;;;;;;4.20;3.00;;;23.30;84.60;;;;;;5041535;28;20033;-69
2022/08/30 11:21:35;;;;;;;4.45;2.90;;;23.30;84.70;;;;;;5042827;28;20041;-70
2022/08/30 11:24:21;;;;;;;5.18;2.30;;;23.30;84.50;;;;;;5053733;28;20037;-67
2022/08/30 11:26:49;;;;;;;7.35;3.17;;;23.30;84.90;;;;;;5047073;28;20025;-68
2022/08/30 11:29:43;;;;;;;9.60;3.22;;;23.40;84.60;;;;;;5040865;28;20099;-67
2022/08/30 11:32:11;;;;;;;8.48;3.38;;;23.40;84.20;;;;;;5037329;28;20021;-70
2022/08/30 11:34:46;;;;;;;5.60;2.72;;;23.40;83.50;;;;;;5051757;28;20017;-70
2022/08/30 11:37:36;;;;;;;3.55;2.78;;;23.40;83.50;;;;;;5047793;28;20044;-68
2022/08/30 11:40:01;;;;;;;4.43;2.30;;;23.50;83.20;;;;;;5041253;28;20058;-67
2022/08/30 11:42:54;;;;;;;8.63;2.38;;;23.40;84.20;;;;;;5043558;28;20457;-66
2022/08/30 11:45:22;;;;;;;5.95;2.70;;;23.50;83.90;;;;;;5035619;28;20029;-68
2022/08/30 11:47:52;;;;;;;8.77;2.88;;;23.50;82.90;;;;;;5033064;28;20037;-70
2022/08/30 11:50:42;;;;;;;6.95;2.88;;;23.50;82.90;;;;;;5033371;28;20526;-70
2022/08/30 11:53:16;;;;;;;4.78;2.58;;;23.60;82.80;;;;;;5033040;28;20473;-70
2022/08/30 11:56:13;;;;;;;7.45;2.50;;;23.60;82.70;;;;;;5033240;28;20028;-70
2022/08/30 11:58:59;;;;;;;5.25;2.83;;;23.60;81.90;;;;;;5043949;28;20059;-67
2022/08/30 12:01:24;;;;;;;6.90;2.10;;;23.60;82.30;;;;;;5051090;28;20025;-70
2022/08/30 12:04:05;;;;;;;5.60;2.08;;;23.60;80.90;;;;;;5050638;28;20549;-68
2022/08/30 12:06:39;;;;;;;7.35;2.22;;;23.60;81.10;;;;;;5052627;28;20025;-70
2022/08/30 12:09:07;;;;;;;4.40;2.20;;;23.70;81.60;;;;;;5052756;28;20021;-70
2022/08/30 12:11:33;;;;;;;7.53;2.33;;;23.70;81.60;;;;;;5052614;28;20029;-69
2022/08/30 12:14:01;;;;;;;6.38;1.77;;;23.70;81.30;;;;;;5052339;28;20039;-69
2022/08/30 12:16:29;;;;;;;6.03;2.00;;;23.70;81.80;;;;;;5038079;28;20034;-71
2022/08/30 12:19:18;;;;;;;3.10;2.03;;;23.70;80.70;;;;;;5047446;28;20029;-70
2022/08/30 12:21:54;;;;;;;3.92;1.90;;;23.70;81.30;;;;;;5050436;28;20102;-71
2022/08/30 12:24:33;;;;;;;4.38;2.03;;;23.70;81.10;;;;;;5053038;28;20136;-70
2022/08/30 12:27:04;;;;;;;5.15;1.63;;;23.80;80.90;;;;;;5055202;28;20490;-70
2022/08/30 12:29:30;;;;;;;5.53;1.90;;;23.80;79.70;;;;;;5044351;28;20471;-70
2022/08/30 12:32:21;;;;;;;5.05;2.35;;;23.80;79.40;;;;;;5043717;28;20517;-70
2022/08/30 12:34:58;;;;;;;3.83;1.95;;;23.80;79.60;;;;;;5044695;28;20155;-70
2022/08/30 12:37:29;;;;;;;3.55;1.83;;;23.80;79.00;;;;;;5054191;28;20037;-71
2022/08/30 12:40:09;;;;;;;3.70;1.45;;;23.80;79.40;;;;;;5046395;28;20017;-68
2022/08/30 12:42:40;;;;;;;6.70;1.92;;;23.80;79.50;;;;;;5045719;28;20075;-68
2022/08/30 12:45:12;;;;;;;7.28;2.45;;;23.80;79.60;;;;;;5047166;28;20036;-72
2022/08/30 12:47:45;;;;;;;5.57;1.88;;;23.80;80.00;;;;;;5045712;28;20052;-68
2022/08/30 12:50:16;;;;;;;5.00;2.20;;;23.90;80.40;;;;;;5052039;28;20057;-68
2022/08/30 12:52:45;;;;;;;5.85;1.90;;;23.90;79.20;;;;;;5052777;28;20036;-70
2022/08/30 12:55:21;;;;;;;4.00;2.00;;;24.00;79.00;;;;;;5050502;28;20116;-69
2022/08/30 12:58:06;;;;;;;9.10;2.22;;;24.00;79.30;;;;;;5046181;28;20033;-69
2022/08/30 13:00:42;;;;;;;3.13;1.77;;;24.00;79.20;;;;;;5044577;28;20390;-69
2022/08/30 13:03:36;;;;;;;4.63;1.90;;;24.00;79.20;;;;;;5035575;28;20029;-69
2022/08/30 13:06:03;;;;;;;4.22;1.80;;;24.00;78.00;;;;;;5045446;28;20147;-69
2022/08/30 13:08:41;;;;;;;4.57;1.73;;;24.00;78.10;;;;;;5042279;28;20033;-70